createdAt,value
2022-11-20T00:00:08.216Z,84.17
2022-11-20T00:01:08.228Z,84.38
2022-11-20T00:02:08.237Z,84.59
2022-11-20T00:03:08.195Z,84.80
2022-11-20T00:04:08.181Z,84.80
2022-11-20T00:05:08.182Z,84.69
2022-11-20T00:06:08.142Z,84.59
2022-11-20T00:07:08.189Z,84.59
2022-11-20T00:08:08.121Z,84.38
2022-11-20T00:09:08.143Z,84.17
2022-11-20T00:10:08.111Z,83.85
2022-11-20T00:11:12.796Z,83.75
2022-11-20T00:12:09.132Z,84.00
2022-11-20T00:13:08.544Z,84.31
2022-11-20T00:14:08.092Z,84.42
2022-11-20T00:15:09.536Z,84.52
2022-11-20T00:16:08.055Z,84.48
2022-11-20T00:17:08.071Z,84.38
2022-11-20T00:18:08.035Z,84.27
2022-11-20T00:19:08.048Z,84.17
2022-11-20T00:20:07.993Z,84.17
2022-11-20T00:21:08.012Z,84.17
2022-11-20T00:22:07.991Z,83.95
2022-11-20T00:23:08.007Z,83.75
2022-11-20T00:24:07.953Z,83.68
2022-11-20T00:25:07.965Z,83.78
2022-11-20T00:26:07.937Z,84.10
2022-11-20T00:27:07.970Z,84.20
2022-11-20T00:28:07.922Z,84.20
2022-11-20T00:29:08.531Z,84.31
2022-11-20T00:30:11.084Z,84.31
2022-11-20T00:31:08.915Z,84.31
2022-11-20T00:32:07.891Z,84.10
2022-11-20T00:33:07.898Z,83.89
2022-11-20T00:34:07.902Z,83.78
2022-11-20T00:35:07.941Z,83.68
2022-11-20T00:36:09.297Z,83.57
2022-11-20T00:37:07.863Z,83.57
2022-11-20T00:38:07.829Z,83.78
2022-11-20T00:39:07.904Z,83.78
2022-11-20T00:40:07.786Z,83.68
2022-11-20T00:41:07.822Z,83.57
2022-11-20T00:42:07.766Z,83.57
2022-11-20T00:43:07.825Z,83.68
2022-11-20T00:44:07.803Z,83.47
2022-11-20T00:45:07.847Z,83.36
2022-11-20T00:46:07.758Z,83.36
2022-11-20T00:47:09.195Z,82.94
2022-11-20T00:48:07.692Z,82.73
2022-11-20T00:49:07.760Z,82.52
2022-11-20T00:50:07.686Z,82.66
2022-11-20T00:51:07.763Z,82.76
2022-11-20T00:52:07.683Z,82.94
2022-11-20T00:53:07.679Z,83.15
2022-11-20T00:54:07.668Z,82.94
2022-11-20T00:55:07.650Z,82.83
2022-11-20T00:56:07.621Z,82.73
2022-11-20T00:57:07.630Z,82.62
2022-11-20T00:58:12.985Z,82.73
2022-11-20T00:59:08.628Z,82.52
2022-11-20T01:00:09.046Z,82.45
2022-11-20T01:01:09.169Z,82.87
2022-11-20T01:02:07.576Z,83.40
2022-11-20T01:03:07.570Z,83.50
2022-11-20T01:04:07.552Z,83.50
2022-11-20T01:05:07.577Z,83.61
2022-11-20T01:06:07.583Z,83.82
2022-11-20T01:07:07.595Z,84.03
2022-11-20T01:08:07.482Z,84.03
2022-11-20T01:09:07.520Z,84.14
2022-11-20T01:10:07.461Z,84.24
2022-11-20T01:11:07.511Z,84.24
2022-11-20T01:12:07.830Z,84.03
2022-11-20T01:13:07.464Z,83.82
2022-11-20T01:14:07.447Z,83.61
2022-11-20T01:15:07.841Z,83.61
2022-11-20T01:16:08.367Z,83.50
2022-11-20T01:17:07.430Z,83.50
2022-11-20T01:18:07.396Z,83.50
2022-11-20T01:19:07.444Z,83.40
2022-11-20T01:20:07.384Z,83.29
2022-11-20T01:21:07.375Z,83.08
2022-11-20T01:22:07.351Z,83.18
2022-11-20T01:23:07.389Z,83.40
2022-11-20T01:24:08.836Z,83.29
2022-11-20T01:25:08.805Z,83.08
2022-11-20T01:26:07.299Z,83.18
2022-11-20T01:27:07.333Z,83.18
2022-11-20T01:28:07.289Z,83.18
2022-11-20T01:29:07.314Z,83.40
2022-11-20T01:30:07.265Z,83.50
2022-11-20T01:31:07.274Z,83.50
2022-11-20T01:32:07.250Z,83.40
2022-11-20T01:33:07.256Z,83.18
2022-11-20T01:34:07.214Z,82.98
2022-11-20T01:35:07.249Z,82.87
2022-11-20T01:36:08.146Z,82.87
2022-11-20T01:37:08.190Z,82.98
2022-11-20T01:38:07.161Z,82.83
2022-11-20T01:39:07.214Z,82.87
2022-11-20T01:40:07.170Z,82.56
2022-11-20T01:41:07.165Z,82.34
2022-11-20T01:42:09.914Z,82.13
2022-11-20T01:43:07.149Z,82.03
2022-11-20T01:44:07.134Z,81.88
2022-11-20T01:45:07.136Z,81.82
2022-11-20T01:46:07.103Z,81.57
2022-11-20T01:47:07.110Z,81.18
2022-11-20T01:48:07.062Z,81.18
2022-11-20T01:49:07.106Z,81.18
2022-11-20T01:50:07.064Z,81.18
2022-11-20T01:51:07.050Z,81.43
2022-11-20T01:52:07.021Z,81.74
2022-11-20T01:53:07.055Z,82.06
2022-11-20T01:54:07.013Z,82.17
2022-11-20T01:55:07.020Z,82.28
2022-11-20T01:56:07.006Z,82.28
2022-11-20T01:57:06.996Z,82.28
2022-11-20T01:58:07.841Z,82.48
2022-11-20T01:59:06.979Z,82.59
2022-11-20T02:00:06.958Z,82.45
2022-11-20T02:01:07.010Z,82.28
2022-11-20T02:02:06.963Z,82.17
2022-11-20T02:03:06.932Z,82.13
2022-11-20T02:04:06.899Z,82.17
2022-11-20T02:05:06.932Z,82.17
2022-11-20T02:06:06.870Z,82.17
2022-11-20T02:07:06.950Z,82.06
2022-11-20T02:08:06.884Z,82.17
2022-11-20T02:09:06.866Z,82.17
2022-11-20T02:10:08.293Z,82.38
2022-11-20T02:11:08.316Z,82.38
2022-11-20T02:12:06.815Z,82.73
2022-11-20T02:13:06.823Z,83.05
2022-11-20T02:14:06.823Z,83.26
2022-11-20T02:15:06.888Z,83.37
2022-11-20T02:16:06.799Z,83.47
2022-11-20T02:17:06.772Z,83.37
2022-11-20T02:18:06.788Z,83.05
2022-11-20T02:19:06.735Z,83.05
2022-11-20T02:20:06.790Z,83.05
2022-11-20T02:21:06.726Z,83.26
2022-11-20T02:22:06.730Z,83.62
2022-11-20T02:23:06.707Z,83.94
2022-11-20T02:24:06.720Z,84.11
2022-11-20T02:25:06.692Z,83.79
2022-11-20T02:26:06.700Z,83.69
2022-11-20T02:27:06.692Z,83.69
2022-11-20T02:28:06.776Z,83.47
2022-11-20T02:29:06.657Z,83.37
2022-11-20T02:30:06.678Z,83.23
2022-11-20T02:31:06.620Z,82.80
2022-11-20T02:32:06.627Z,82.48
2022-11-20T02:33:06.618Z,82.59
2022-11-20T02:34:06.617Z,82.42
2022-11-20T02:35:06.570Z,82.42
2022-11-20T02:36:06.587Z,82.59
2022-11-20T02:37:06.667Z,82.70
2022-11-20T02:38:06.568Z,82.73
2022-11-20T02:39:06.591Z,82.73
2022-11-20T02:40:06.562Z,82.73
2022-11-20T02:41:07.218Z,82.73
2022-11-20T02:42:06.538Z,82.73
2022-11-20T02:43:06.488Z,82.63
2022-11-20T02:44:06.517Z,82.63
2022-11-20T02:45:06.466Z,82.63
2022-11-20T02:46:06.492Z,82.63
2022-11-20T02:47:06.473Z,82.73
2022-11-20T02:48:06.488Z,82.95
2022-11-20T02:49:06.421Z,83.15
2022-11-20T02:50:06.441Z,83.15
2022-11-20T02:51:06.415Z,83.15
2022-11-20T02:52:06.429Z,83.05
2022-11-20T02:53:07.880Z,82.95
2022-11-20T02:54:06.410Z,83.05
2022-11-20T02:55:06.359Z,83.15
2022-11-20T02:56:06.409Z,82.95
2022-11-20T02:57:06.343Z,82.84
2022-11-20T02:58:06.352Z,82.84
2022-11-20T02:59:06.345Z,82.73
2022-11-20T03:00:06.342Z,82.73
2022-11-20T03:01:06.365Z,82.73
2022-11-20T03:02:06.312Z,82.63
2022-11-20T03:03:06.290Z,82.63
2022-11-20T03:04:06.293Z,82.63
2022-11-20T03:05:06.262Z,82.53
2022-11-20T03:06:06.273Z,82.42
2022-11-20T03:07:06.287Z,82.53
2022-11-20T03:08:06.251Z,82.84
2022-11-20T03:09:06.232Z,83.05
2022-11-20T03:10:06.245Z,82.95
2022-11-20T03:11:06.194Z,82.84
2022-11-20T03:12:06.208Z,82.77
2022-11-20T03:13:06.172Z,82.77
2022-11-20T03:14:06.220Z,82.73
2022-11-20T03:15:06.155Z,82.77
2022-11-20T03:16:06.185Z,82.56
2022-11-20T03:17:06.121Z,82.56
2022-11-20T03:18:06.133Z,82.56
2022-11-20T03:19:06.104Z,82.45
2022-11-20T03:20:06.137Z,82.45
2022-11-20T03:21:06.086Z,82.45
2022-11-20T03:22:06.105Z,82.45
2022-11-20T03:23:06.073Z,82.35
2022-11-20T03:24:06.092Z,82.45
2022-11-20T03:25:06.038Z,82.67
2022-11-20T03:26:06.101Z,82.77
2022-11-20T03:27:06.033Z,82.88
2022-11-20T03:28:06.037Z,82.88
2022-11-20T03:29:06.008Z,82.95
2022-11-20T03:30:06.031Z,82.84
2022-11-20T03:31:06.012Z,82.63
2022-11-20T03:32:06.008Z,82.42
2022-11-20T03:33:05.966Z,82.31
2022-11-20T03:34:06.020Z,82.31
2022-11-20T03:35:05.946Z,82.21
2022-11-20T03:36:07.417Z,82.10
2022-11-20T03:37:07.396Z,81.89
2022-11-20T03:38:05.957Z,81.68
2022-11-20T03:39:05.948Z,81.57
2022-11-20T03:40:05.929Z,81.57
2022-11-20T03:41:05.893Z,81.26
2022-11-20T03:42:05.941Z,80.94
2022-11-20T03:43:05.849Z,80.83
2022-11-20T03:44:05.875Z,80.98
2022-11-20T03:45:05.840Z,80.98
2022-11-20T03:46:05.852Z,81.08
2022-11-20T03:47:05.825Z,81.19
2022-11-20T03:48:05.831Z,81.29
2022-11-20T03:49:05.790Z,81.29
2022-11-20T03:50:05.811Z,81.29
2022-11-20T03:51:05.805Z,81.29
2022-11-20T03:52:05.779Z,80.98
2022-11-20T03:53:05.752Z,80.76
2022-11-20T03:54:05.760Z,80.87
2022-11-20T03:55:06.066Z,80.87
2022-11-20T03:56:07.206Z,80.98
2022-11-20T03:57:05.791Z,81.08
2022-11-20T03:58:05.731Z,81.29
2022-11-20T03:59:05.729Z,81.40
2022-11-20T04:00:05.718Z,81.50
2022-11-20T04:01:05.667Z,81.54
2022-11-20T04:02:05.880Z,81.43
2022-11-20T04:03:05.647Z,81.65
2022-11-20T04:04:05.680Z,81.96
2022-11-20T04:05:05.647Z,82.17
2022-11-20T04:06:05.643Z,82.28
2022-11-20T04:07:05.664Z,82.28
2022-11-20T04:08:05.642Z,82.28
2022-11-20T04:09:05.597Z,82.24
2022-11-20T04:10:05.591Z,81.93
2022-11-20T04:11:05.584Z,81.65
2022-11-20T04:12:05.585Z,81.54
2022-11-20T04:13:05.546Z,81.65
2022-11-20T04:14:05.554Z,81.85
2022-11-20T04:15:05.521Z,81.85
2022-11-20T04:16:05.551Z,81.85
2022-11-20T04:17:05.494Z,81.75
2022-11-20T04:18:05.511Z,81.85
2022-11-20T04:19:05.509Z,82.17
2022-11-20T04:20:05.557Z,82.28
2022-11-20T04:21:06.930Z,82.28
2022-11-20T04:22:05.474Z,82.28
2022-11-20T04:23:05.437Z,82.17
2022-11-20T04:24:05.456Z,82.17
2022-11-20T04:25:05.426Z,82.17
2022-11-20T04:26:05.465Z,82.28
2022-11-20T04:27:05.396Z,82.28
2022-11-20T04:28:05.404Z,82.17
2022-11-20T04:29:05.377Z,82.17
2022-11-20T04:30:05.388Z,82.39
2022-11-20T04:31:05.360Z,82.39
2022-11-20T04:32:05.368Z,82.49
2022-11-20T04:33:05.333Z,82.28
2022-11-20T04:34:05.403Z,81.96
2022-11-20T04:35:05.331Z,81.65
2022-11-20T04:36:05.313Z,81.54
2022-11-20T04:37:05.284Z,81.54
2022-11-20T04:38:05.295Z,81.43
2022-11-20T04:39:05.279Z,81.33
2022-11-20T04:40:05.285Z,81.08
2022-11-20T04:41:05.264Z,80.98
2022-11-20T04:42:05.255Z,80.98
2022-11-20T04:43:05.238Z,80.98
2022-11-20T04:44:05.258Z,80.87
2022-11-20T04:45:05.218Z,80.55
2022-11-20T04:46:06.670Z,80.44
2022-11-20T04:47:05.188Z,80.44
2022-11-20T04:48:05.211Z,80.34
2022-11-20T04:49:05.200Z,80.69
2022-11-20T04:50:05.350Z,80.91
2022-11-20T04:51:05.140Z,81.23
2022-11-20T04:52:05.154Z,81.43
2022-11-20T04:53:05.139Z,81.54
2022-11-20T04:54:05.141Z,81.75
2022-11-20T04:55:05.092Z,81.96
2022-11-20T04:56:05.106Z,82.07
2022-11-20T04:57:06.308Z,82.17
2022-11-20T04:58:05.103Z,82.28
2022-11-20T04:59:05.074Z,82.45
2022-11-20T05:00:05.081Z,82.45
2022-11-20T05:01:05.218Z,82.24
2022-11-20T05:02:05.086Z,82.35
2022-11-20T05:03:05.975Z,82.56
2022-11-20T05:04:05.033Z,82.77
2022-11-20T05:05:04.984Z,82.88
2022-11-20T05:06:05.022Z,83.51
2022-11-20T05:07:05.009Z,84.14
2022-11-20T05:08:04.994Z,84.78
2022-11-20T05:09:04.944Z,85.21
2022-11-20T05:10:04.975Z,85.52
2022-11-20T05:11:04.948Z,85.63
2022-11-20T05:12:04.944Z,85.84
2022-11-20T05:13:04.909Z,86.01
2022-11-20T05:14:04.932Z,86.01
2022-11-20T05:15:04.886Z,86.01
2022-11-20T05:16:04.915Z,85.91
2022-11-20T05:17:04.866Z,85.80
2022-11-20T05:18:04.879Z,85.69
2022-11-20T05:19:04.845Z,85.59
2022-11-20T05:20:04.865Z,85.66
2022-11-20T05:21:04.843Z,85.76
2022-11-20T05:22:04.837Z,85.97
2022-11-20T05:23:04.808Z,86.18
2022-11-20T05:24:04.843Z,86.29
2022-11-20T05:25:04.797Z,86.40
2022-11-20T05:26:04.795Z,86.40
2022-11-20T05:27:04.760Z,86.40
2022-11-20T05:28:04.788Z,86.08
2022-11-20T05:29:04.761Z,85.23
2022-11-20T05:30:04.777Z,84.39
2022-11-20T05:31:04.752Z,84.07
2022-11-20T05:32:06.198Z,84.07
2022-11-20T05:33:04.716Z,84.07
2022-11-20T05:34:04.726Z,83.97
2022-11-20T05:35:04.699Z,83.54
2022-11-20T05:36:04.715Z,83.23
2022-11-20T05:37:04.658Z,83.37
2022-11-20T05:38:04.690Z,83.79
2022-11-20T05:39:04.661Z,84.32
2022-11-20T05:40:04.748Z,84.84
2022-11-20T05:41:04.634Z,85.16
2022-11-20T05:42:04.630Z,85.27
2022-11-20T05:43:04.613Z,85.06
2022-11-20T05:44:04.643Z,84.95
2022-11-20T05:45:04.617Z,84.95
2022-11-20T05:46:04.609Z,85.06
2022-11-20T05:47:04.556Z,85.48
2022-11-20T05:48:04.586Z,85.91
2022-11-20T05:49:04.535Z,86.08
2022-11-20T05:50:06.016Z,86.18
2022-11-20T05:51:04.544Z,86.18
2022-11-20T05:52:04.553Z,86.29
2022-11-20T05:53:04.551Z,86.50
2022-11-20T05:54:04.522Z,86.82
2022-11-20T05:55:04.490Z,86.88
2022-11-20T05:56:04.503Z,86.88
2022-11-20T05:57:04.618Z,87.20
2022-11-20T05:58:05.935Z,87.41
2022-11-20T05:59:04.445Z,87.66
2022-11-20T06:00:04.483Z,87.87
2022-11-20T06:01:04.410Z,88.04
2022-11-20T06:02:04.440Z,88.26
2022-11-20T06:03:04.433Z,88.36
2022-11-20T06:04:04.406Z,88.46
2022-11-20T06:05:04.388Z,88.57
2022-11-20T06:06:04.392Z,88.57
2022-11-20T06:07:04.443Z,88.68
2022-11-20T06:08:05.171Z,88.89
2022-11-20T06:09:04.326Z,89.00
2022-11-20T06:10:04.354Z,89.00
2022-11-20T06:11:04.345Z,89.10
2022-11-20T06:12:04.325Z,89.20
2022-11-20T06:13:04.283Z,89.31
2022-11-20T06:14:04.300Z,89.31
2022-11-20T06:15:04.269Z,89.10
2022-11-20T06:16:04.284Z,88.68
2022-11-20T06:17:04.256Z,88.26
2022-11-20T06:18:04.275Z,88.04
2022-11-20T06:19:04.218Z,87.94
2022-11-20T06:20:04.236Z,88.01
2022-11-20T06:21:04.222Z,88.01
2022-11-20T06:22:04.615Z,88.11
2022-11-20T06:23:05.642Z,88.11
2022-11-20T06:24:05.668Z,88.11
2022-11-20T06:25:04.197Z,88.11
2022-11-20T06:26:04.193Z,88.21
2022-11-20T06:27:04.170Z,88.21
2022-11-20T06:28:04.123Z,88.21
2022-11-20T06:29:04.141Z,88.21
2022-11-20T06:30:04.118Z,88.32
2022-11-20T06:31:04.156Z,88.32
2022-11-20T06:32:04.111Z,88.43
2022-11-20T06:33:04.109Z,88.43
2022-11-20T06:34:04.073Z,88.43
2022-11-20T06:35:04.081Z,88.53
2022-11-20T06:36:10.096Z,88.53
2022-11-20T06:37:05.088Z,88.32
2022-11-20T06:38:04.018Z,88.21
2022-11-20T06:39:04.467Z,88.11
2022-11-20T06:40:04.026Z,88.11
2022-11-20T06:41:04.024Z,88.15
2022-11-20T06:42:03.976Z,88.26
2022-11-20T06:43:04.019Z,88.46
2022-11-20T06:44:03.981Z,88.57
2022-11-20T06:45:03.969Z,88.78
2022-11-20T06:46:03.940Z,89.10
2022-11-20T06:47:03.953Z,89.31
2022-11-20T06:48:03.932Z,89.52
2022-11-20T06:49:04.916Z,89.52
2022-11-20T06:50:03.901Z,89.52
2022-11-20T06:51:03.935Z,89.42
2022-11-20T06:52:03.890Z,89.56
2022-11-20T06:53:03.895Z,89.63
2022-11-20T06:54:03.878Z,89.73
2022-11-20T06:55:03.935Z,89.73
2022-11-20T06:56:03.823Z,89.73
2022-11-20T06:57:03.852Z,89.84
2022-11-20T06:58:03.832Z,89.94
2022-11-20T06:59:03.862Z,90.05
2022-11-20T07:00:03.790Z,90.16
2022-11-20T07:01:03.918Z,90.26
2022-11-20T07:02:03.765Z,90.26
2022-11-20T07:03:03.801Z,90.26
2022-11-20T07:04:03.777Z,90.26
2022-11-20T07:05:03.784Z,90.16
2022-11-20T07:06:03.740Z,90.16
2022-11-20T07:07:05.289Z,90.16
2022-11-20T07:08:05.202Z,90.11
2022-11-20T07:09:05.479Z,90.11
2022-11-20T07:10:03.724Z,90.01
2022-11-20T07:11:03.723Z,89.90
2022-11-20T07:12:03.666Z,89.90
2022-11-20T07:13:03.718Z,89.79
2022-11-20T07:14:03.679Z,89.69
2022-11-20T07:15:03.686Z,89.69
2022-11-20T07:16:03.625Z,89.84
2022-11-20T07:17:03.647Z,89.84
2022-11-20T07:18:03.625Z,89.94
2022-11-20T07:19:03.646Z,90.05
2022-11-20T07:20:03.604Z,89.94
2022-11-20T07:21:03.589Z,90.16
2022-11-20T07:22:03.558Z,90.26
2022-11-20T07:23:03.632Z,90.26
2022-11-20T07:24:03.553Z,90.33
2022-11-20T07:25:03.572Z,90.22
2022-11-20T07:26:03.523Z,90.01
2022-11-20T07:27:03.528Z,89.79
2022-11-20T07:28:03.489Z,89.59
2022-11-20T07:29:03.525Z,89.59
2022-11-20T07:30:03.511Z,89.59
2022-11-20T07:31:03.526Z,89.59
2022-11-20T07:32:03.461Z,89.59
2022-11-20T07:33:03.491Z,89.48
2022-11-20T07:34:04.916Z,89.48
2022-11-20T07:35:03.453Z,89.48
2022-11-20T07:36:03.425Z,89.48
2022-11-20T07:37:09.040Z,89.48
2022-11-20T07:38:04.403Z,89.34
2022-11-20T07:39:03.403Z,89.27
2022-11-20T07:40:03.363Z,89.37
2022-11-20T07:41:03.392Z,89.23
2022-11-20T07:42:03.361Z,89.02
2022-11-20T07:43:03.358Z,89.02
2022-11-20T07:44:03.321Z,88.81
2022-11-20T07:45:03.342Z,88.70
2022-11-20T07:46:03.330Z,88.60
2022-11-20T07:47:03.323Z,88.49
2022-11-20T07:48:03.284Z,88.49
2022-11-20T07:49:03.310Z,88.39
2022-11-20T07:50:03.284Z,88.28
2022-11-20T07:51:03.284Z,88.11
2022-11-20T07:52:04.979Z,88.11
2022-11-20T07:53:03.275Z,88.21
2022-11-20T07:54:03.345Z,88.32
2022-11-20T07:55:03.276Z,88.32
2022-11-20T07:56:03.209Z,88.32
2022-11-20T07:57:03.217Z,88.43
2022-11-20T07:58:03.233Z,88.53
2022-11-20T07:59:03.251Z,88.39
2022-11-20T08:00:03.160Z,88.39
2022-11-20T08:01:03.299Z,88.18
2022-11-20T08:02:03.152Z,87.86
2022-11-20T08:03:03.153Z,87.76
2022-11-20T08:04:03.132Z,87.96
2022-11-20T08:05:03.169Z,88.18
2022-11-20T08:06:03.180Z,88.18
2022-11-20T08:07:03.226Z,88.07
2022-11-20T08:08:03.099Z,87.86
2022-11-20T08:09:03.095Z,87.76
2022-11-20T08:10:03.111Z,87.65
2022-11-20T08:11:03.088Z,87.65
2022-11-20T08:12:03.035Z,87.54
2022-11-20T08:13:03.096Z,87.33
2022-11-20T08:14:03.014Z,87.23
2022-11-20T08:15:03.896Z,87.33
2022-11-20T08:16:03.027Z,87.44
2022-11-20T08:17:03.024Z,87.44
2022-11-20T08:18:29.484Z,87.44
2022-11-20T08:19:04.959Z,87.44
2022-11-20T08:20:02.957Z,87.54
2022-11-20T08:21:02.978Z,87.44
2022-11-20T08:22:02.957Z,87.23
2022-11-20T08:23:02.992Z,87.12
2022-11-20T08:24:02.912Z,87.02
2022-11-20T08:25:03.052Z,86.80
2022-11-20T08:26:02.897Z,86.59
2022-11-20T08:27:02.924Z,86.59
2022-11-20T08:28:11.514Z,86.80
2022-11-20T08:29:03.880Z,87.33
2022-11-20T08:30:02.885Z,88.39
2022-11-20T08:31:02.855Z,87.86
2022-11-20T08:32:02.827Z,87.44
2022-11-20T08:33:02.862Z,87.44
2022-11-20T08:34:07.702Z,87.23
2022-11-20T08:35:03.825Z,86.80
2022-11-20T08:36:02.775Z,86.49
2022-11-20T08:37:02.861Z,86.17
2022-11-20T08:38:02.754Z,86.17
2022-11-20T08:39:02.776Z,86.28
2022-11-20T08:40:02.746Z,86.28
2022-11-20T08:41:02.785Z,86.07
2022-11-20T08:42:02.714Z,86.07
2022-11-20T08:43:03.683Z,86.17
2022-11-20T08:44:02.710Z,86.38
2022-11-20T08:45:02.743Z,86.59
2022-11-20T08:46:02.701Z,86.59
2022-11-20T08:47:02.702Z,86.59
2022-11-20T08:48:02.680Z,86.70
2022-11-20T08:49:02.692Z,86.80
2022-11-20T08:50:02.634Z,86.80
2022-11-20T08:51:02.648Z,86.70
2022-11-20T08:52:02.615Z,86.45
2022-11-20T08:53:02.633Z,86.38
2022-11-20T08:54:02.618Z,86.38
2022-11-20T08:55:02.640Z,86.49
2022-11-20T08:56:02.564Z,86.80
2022-11-20T08:57:02.629Z,86.91
2022-11-20T08:58:02.536Z,87.02
2022-11-20T08:59:22.928Z,87.12
2022-11-20T09:00:06.338Z,87.33
2022-11-20T09:01:02.593Z,87.23
2022-11-20T09:02:02.498Z,87.23
2022-11-20T09:03:02.651Z,87.23
2022-11-20T09:04:02.497Z,87.23
2022-11-20T09:05:02.511Z,87.44
2022-11-20T09:06:02.512Z,87.54
2022-11-20T09:07:02.513Z,87.29
2022-11-20T09:08:02.440Z,86.98
2022-11-20T09:09:06.594Z,86.87
2022-11-20T09:10:24.847Z,86.77
2022-11-20T09:11:03.441Z,86.45
2022-11-20T09:12:02.398Z,86.45
2022-11-20T09:13:02.419Z,86.77
2022-11-20T09:14:02.377Z,87.08
2022-11-20T09:15:02.420Z,87.19
2022-11-20T09:16:02.367Z,87.08
2022-11-20T09:17:02.375Z,87.08
2022-11-20T09:18:02.343Z,87.08
2022-11-20T09:19:33.600Z,87.08
2022-11-20T09:20:03.306Z,86.94
2022-11-20T09:21:02.396Z,86.83
2022-11-20T09:22:02.288Z,86.62
2022-11-20T09:23:02.974Z,86.52
2022-11-20T09:24:02.387Z,86.52
2022-11-20T09:25:02.310Z,86.62
2022-11-20T09:26:02.259Z,86.52
2022-11-20T09:27:02.378Z,86.37
2022-11-20T09:28:02.228Z,86.37
2022-11-20T09:29:02.246Z,86.27
2022-11-20T09:30:02.218Z,86.05
2022-11-20T09:31:02.223Z,86.05
2022-11-20T09:32:02.188Z,86.02
2022-11-20T09:33:02.221Z,86.02
2022-11-20T09:34:02.159Z,85.91
2022-11-20T09:35:02.207Z,85.91
2022-11-20T09:36:03.111Z,85.91
2022-11-20T09:37:06.155Z,85.80
2022-11-20T09:38:03.145Z,85.80
2022-11-20T09:39:02.148Z,85.80
2022-11-20T09:40:02.116Z,86.02
2022-11-20T09:41:03.086Z,86.02
2022-11-20T09:42:03.034Z,86.08
2022-11-20T09:43:03.047Z,85.87
2022-11-20T09:44:02.072Z,85.77
2022-11-20T09:45:02.083Z,85.77
2022-11-20T09:46:02.048Z,85.77
2022-11-20T09:47:03.516Z,85.97
2022-11-20T09:48:02.032Z,86.19
2022-11-20T09:49:02.029Z,86.40
2022-11-20T09:50:02.268Z,86.29
2022-11-20T09:51:02.022Z,86.08
2022-11-20T09:52:02.304Z,86.08
2022-11-20T09:53:02.267Z,86.29
2022-11-20T09:54:02.032Z,86.40
2022-11-20T09:55:01.973Z,86.51
2022-11-20T09:56:02.070Z,86.51
2022-11-20T09:57:02.145Z,86.29
2022-11-20T09:58:03.385Z,86.08
2022-11-20T09:59:02.118Z,85.97
2022-11-20T10:00:03.389Z,86.08
2022-11-20T10:01:02.178Z,86.36
2022-11-20T10:02:03.309Z,86.46
2022-11-20T10:03:03.349Z,86.57
2022-11-20T10:04:02.110Z,86.46
2022-11-20T10:05:02.639Z,86.57
2022-11-20T10:06:02.791Z,86.57
2022-11-20T10:07:31.941Z,86.46
2022-11-20T10:08:03.695Z,86.78
2022-11-20T10:09:03.269Z,86.78
2022-11-20T10:10:02.320Z,86.78
2022-11-20T10:11:02.400Z,86.68
2022-11-20T10:12:03.213Z,86.63
2022-11-20T10:13:01.784Z,86.74
2022-11-20T10:14:03.183Z,86.85
2022-11-20T10:15:03.268Z,86.80
2022-11-20T10:16:03.161Z,86.60
2022-11-20T10:17:03.181Z,86.49
2022-11-20T10:18:03.168Z,86.28
2022-11-20T10:19:03.178Z,86.28
2022-11-20T10:20:03.121Z,86.03
2022-11-20T10:21:03.173Z,86.03
2022-11-20T10:22:01.653Z,86.03
2022-11-20T10:23:01.800Z,86.03
2022-11-20T10:24:02.368Z,85.93
2022-11-20T10:25:01.703Z,85.82
2022-11-20T10:26:01.595Z,85.82
2022-11-20T10:27:01.616Z,85.78
2022-11-20T10:28:01.607Z,85.89
2022-11-20T10:29:06.017Z,85.93
2022-11-20T10:30:02.565Z,85.82
2022-11-20T10:31:03.062Z,85.93
2022-11-20T10:32:01.564Z,86.03
2022-11-20T10:33:01.555Z,85.82
2022-11-20T10:34:22.164Z,85.82
2022-11-20T10:35:02.534Z,85.93
2022-11-20T10:36:01.508Z,86.13
2022-11-20T10:37:01.555Z,86.24
2022-11-20T10:38:01.486Z,86.35
2022-11-20T10:39:01.499Z,86.45
2022-11-20T10:40:01.474Z,86.35
2022-11-20T10:41:01.502Z,86.24
2022-11-20T10:42:01.566Z,86.35
2022-11-20T10:43:02.893Z,86.55
2022-11-20T10:44:01.443Z,86.77
2022-11-20T10:45:04.409Z,86.77
2022-11-20T10:46:01.418Z,86.77
2022-11-20T10:47:01.384Z,86.77
2022-11-20T10:48:01.418Z,86.72
2022-11-20T10:49:01.357Z,86.41
2022-11-20T10:50:01.378Z,86.41
2022-11-20T10:51:01.342Z,86.72
2022-11-20T10:52:01.348Z,86.83
2022-11-20T10:53:01.620Z,86.83
2022-11-20T10:54:01.325Z,87.15
2022-11-20T10:55:01.304Z,87.36
2022-11-20T10:56:01.340Z,87.46
2022-11-20T10:57:01.290Z,87.36
2022-11-20T10:58:01.340Z,87.04
2022-11-20T10:59:01.269Z,86.83
2022-11-20T11:00:01.290Z,86.62
2022-11-20T11:01:01.246Z,86.30
2022-11-20T11:02:03.563Z,86.30
2022-11-20T11:03:01.292Z,86.37
2022-11-20T11:04:01.269Z,86.47
2022-11-20T11:05:02.155Z,86.62
2022-11-20T11:06:02.664Z,87.04
2022-11-20T11:07:01.270Z,87.42
2022-11-20T11:08:01.167Z,87.52
2022-11-20T11:09:01.161Z,87.32
2022-11-20T11:10:01.182Z,87.38
2022-11-20T11:11:01.132Z,87.80
2022-11-20T11:12:06.861Z,87.59
2022-11-20T11:13:02.604Z,86.92
2022-11-20T11:14:01.134Z,86.40
2022-11-20T11:15:01.095Z,86.19
2022-11-20T11:16:01.098Z,86.05
2022-11-20T11:17:01.069Z,85.73
2022-11-20T11:18:01.084Z,85.17
2022-11-20T11:19:01.043Z,84.64
2022-11-20T11:20:02.516Z,84.58
2022-11-20T11:21:01.020Z,84.16
2022-11-20T11:22:01.033Z,84.27
2022-11-20T11:23:01.025Z,84.47
2022-11-20T11:24:19.842Z,84.68
2022-11-20T11:25:02.026Z,84.79
2022-11-20T11:26:00.982Z,84.85
2022-11-20T11:27:00.943Z,84.96
2022-11-20T11:28:00.964Z,84.81
2022-11-20T11:29:02.394Z,83.87
2022-11-20T11:30:00.959Z,83.28
2022-11-20T11:31:00.904Z,83.84
2022-11-20T11:32:00.925Z,84.37
2022-11-20T11:33:00.883Z,84.68
2022-11-20T11:34:00.917Z,84.96
2022-11-20T11:35:00.865Z,85.17
2022-11-20T11:36:02.326Z,85.17
2022-11-20T11:37:00.892Z,84.85
2022-11-20T11:38:00.863Z,84.61
2022-11-20T11:39:00.812Z,84.22
2022-11-20T11:40:22.951Z,84.01
2022-11-20T11:41:01.820Z,84.01
2022-11-20T11:42:00.810Z,83.91
2022-11-20T11:43:00.777Z,83.81
2022-11-20T11:44:00.790Z,83.49
2022-11-20T11:45:00.748Z,83.59
2022-11-20T11:46:00.786Z,83.59
2022-11-20T11:47:00.745Z,83.59
2022-11-20T11:48:00.760Z,83.70
2022-11-20T11:49:00.712Z,83.91
2022-11-20T11:50:00.728Z,84.12
2022-11-20T11:51:00.696Z,84.01
2022-11-20T11:52:02.159Z,83.77
2022-11-20T11:53:02.128Z,83.66
2022-11-20T11:54:00.682Z,83.66
2022-11-20T11:55:00.674Z,83.87
2022-11-20T11:56:00.651Z,83.98
2022-11-20T11:57:00.619Z,83.98
2022-11-20T11:58:00.653Z,83.77
2022-11-20T11:59:00.616Z,83.87
2022-11-20T12:00:00.619Z,84.12
2022-11-20T12:01:00.607Z,84.54
2022-11-20T12:02:00.639Z,84.96
2022-11-20T12:03:00.552Z,85.48
2022-11-20T12:04:00.561Z,85.90
2022-11-20T12:05:00.555Z,85.80
2022-11-20T12:06:00.549Z,85.69
2022-11-20T12:07:09.207Z,85.59
2022-11-20T12:08:01.544Z,85.24
2022-11-20T12:09:00.494Z,85.13
2022-11-20T12:10:00.507Z,85.02
2022-11-20T12:11:01.942Z,85.44
2022-11-20T12:12:00.490Z,85.34
2022-11-20T12:13:00.456Z,85.34
2022-11-20T12:14:00.479Z,85.34
2022-11-20T12:15:01.885Z,85.13
2022-11-20T12:16:01.896Z,84.99
2022-11-20T12:17:00.731Z,84.99
2022-11-20T12:18:00.416Z,84.88
2022-11-20T12:19:00.376Z,84.78
2022-11-20T12:20:00.395Z,84.56
2022-11-20T12:21:00.567Z,84.36
2022-11-20T12:22:03.372Z,84.15
2022-11-20T12:23:00.347Z,84.15
2022-11-20T12:24:00.356Z,84.25
2022-11-20T12:25:00.320Z,84.46
2022-11-20T12:26:00.336Z,84.67
2022-11-20T12:27:01.738Z,85.09
2022-11-20T12:28:00.318Z,85.19
2022-11-20T12:29:00.290Z,84.95
2022-11-20T12:30:00.296Z,84.95
2022-11-20T12:31:00.252Z,84.95
2022-11-20T12:32:00.264Z,84.74
2022-11-20T12:33:00.225Z,84.53
2022-11-20T12:34:00.252Z,85.16
2022-11-20T12:35:00.348Z,88.04
2022-11-20T12:36:00.228Z,86.06
2022-11-20T12:37:00.169Z,84.77
2022-11-20T12:38:00.246Z,84.03
2022-11-20T12:39:00.151Z,83.51
2022-11-20T12:40:00.206Z,84.34
2022-11-20T12:41:00.151Z,84.14
2022-11-20T12:42:00.153Z,83.40
2022-11-20T12:43:00.113Z,83.30
2022-11-20T12:44:00.140Z,83.09
2022-11-20T12:45:00.098Z,83.09
2022-11-20T12:46:01.583Z,82.89
2022-11-20T12:47:01.515Z,82.78
2022-11-20T12:48:01.045Z,82.67
2022-11-20T12:49:00.065Z,82.67
2022-11-20T12:50:00.342Z,82.67
2022-11-20T12:51:14.616Z,82.67
2022-11-20T12:52:01.229Z,83.30